• Join FlightAware (Why Join?)
  • Login
  • US Flag 
07:23AM EST


 

Airport Tracker/Info


-or-


 

Live Flight TrackerFlight Track Log ✈ MPE604 ✈ 03-May-2013 ✈ CYXP - CYVM

Flight Track Log - Related Links

Times and Time Zones

All times are in EDT time to prevent confusion due to time zone crossing. See the MPE604 flight status page for this flight to view local times or setup timezone preferences in your user account.

Time Position Orientation Groundspeed Altitude Reporting Facility
EDT Latitude Longitude Course Direction KTS MPH feet Rate Location/Type
08:26PM 66.7485 -65.0012 25° Northeast  Level FlightAware Approximate
08:27PM 66.7956 -64.9453 25° Northeast  Level FlightAware Approximate
08:28PM 66.8427 -64.8892 25° Northeast  Level FlightAware Approximate
08:29PM 66.8897 -64.8329 25° Northeast  Level FlightAware Approximate
08:30PM 66.9367 -64.7764 25° Northeast  Level FlightAware Approximate
08:31PM 66.9837 -64.7197 25° Northeast  Level FlightAware Approximate
08:32PM 67.0310 -64.6641 24° Northeast  Level FlightAware Approximate
08:33PM 67.0783 -64.6091 24° Northeast  Level FlightAware Approximate
08:34PM 67.1257 -64.5539 24° Northeast  Level FlightAware Approximate
08:35PM 67.1730 -64.4985 24° Northeast  Level FlightAware Approximate
08:36PM 67.2198 -64.4404 27° Northeast  Level FlightAware Approximate
08:37PM 67.2661 -64.3790 27° Northeast  Level FlightAware Approximate
08:38PM 67.3122 -64.3173 27° Northeast  Level FlightAware Approximate
08:39PM 67.3584 -64.2554 27° Northeast  Level FlightAware Approximate
08:40PM 67.4049 -64.1951 21° North  Level FlightAware Approximate
08:41PM 67.4525 -64.1405 25° Northeast  Level FlightAware Approximate
08:42PM 67.4997 -64.0837 25° Northeast  Level FlightAware Approximate
08:43PM 67.5460 -64.0220 27° Northeast  Level FlightAware Approximate
08:44PM 67.5458 -64.0314 180° South  Level Estimated
08:45PM 67.5458 -64.0314 180° South  Level Estimated
08:46PM 67.5458 -64.0314 180° South  Level Estimated
08:47PM 67.5458 -64.0314 180° South  Level Estimated
08:48PM 67.5458 -64.0314 180° South  Level Estimated
08:49PM 67.5458 -64.0314 180° South  Level Estimated
08:50PM 67.5458 -64.0314 180° South  Level Estimated
08:51PM 67.5458 -64.0314 180° South  Level Estimated
08:52PM 67.5458 -64.0314 180° South  Level Estimated
08:53PM 67.5458 -64.0314 180° South  Level Estimated
08:54PM 67.5458 -64.0314 180° South  Level Estimated
08:55PM 67.5458 -64.0314 180° South  Level Estimated
08:56PM 67.5458 -64.0314 180° South  Level Estimated
08:57PM 67.5458 -64.0314 180° South  Level Estimated
08:58PM 67.5458 -64.0314 180° South  Level Estimated
08:59PM 67.5458 -64.0314 180° South  Level Estimated